sensor_id;sensor_type;location;lat;lon;timestamp;P1;durP1;ratioP1;P2;durP2;ratioP2
66089;SDS011;53113;45.602;11.904;2022-12-10T00:01:50;17.50;;;14.40;;
66089;SDS011;53113;45.602;11.904;2022-12-10T00:04:18;19.60;;;15.00;;
66089;SDS011;53113;45.602;11.904;2022-12-10T00:06:45;20.70;;;15.10;;
66089;SDS011;53113;45.602;11.904;2022-12-10T00:09:13;21.80;;;16.00;;
66089;SDS011;53113;45.602;11.904;2022-12-10T00:11:40;21.30;;;16.00;;
66089;SDS011;53113;45.602;11.904;2022-12-10T00:14:08;20.60;;;14.80;;
66089;SDS011;53113;45.602;11.904;2022-12-10T00:16:35;21.60;;;16.00;;
66089;SDS011;53113;45.602;11.904;2022-12-10T00:19:02;21.80;;;15.80;;
66089;SDS011;53113;45.602;11.904;2022-12-10T00:21:31;22.90;;;16.40;;
66089;SDS011;53113;45.602;11.904;2022-12-10T00:23:59;27.40;;;16.50;;
66089;SDS011;53113;45.602;11.904;2022-12-10T00:26:27;25.10;;;17.50;;
66089;SDS011;53113;45.602;11.904;2022-12-10T00:28:54;24.70;;;18.00;;
66089;SDS011;53113;45.602;11.904;2022-12-10T00:31:23;22.50;;;17.40;;
66089;SDS011;53113;45.602;11.904;2022-12-10T00:33:55;26.40;;;18.10;;
66089;SDS011;53113;45.602;11.904;2022-12-10T00:36:32;27.70;;;18.70;;
66089;SDS011;53113;45.602;11.904;2022-12-10T00:39:11;24.70;;;17.60;;
66089;SDS011;53113;45.602;11.904;2022-12-10T00:41:38;25.50;;;18.90;;
66089;SDS011;53113;45.602;11.904;2022-12-10T00:44:05;24.20;;;18.40;;
66089;SDS011;53113;45.602;11.904;2022-12-10T00:46:31;25.00;;;17.40;;
66089;SDS011;53113;45.602;11.904;2022-12-10T00:48:58;24.60;;;17.20;;
66089;SDS011;53113;45.602;11.904;2022-12-10T00:51:25;26.60;;;18.30;;
66089;SDS011;53113;45.602;11.904;2022-12-10T00:53:53;29.00;;;19.00;;
66089;SDS011;53113;45.602;11.904;2022-12-10T00:56:21;29.40;;;19.80;;
66089;SDS011;53113;45.602;11.904;2022-12-10T00:58:53;27.00;;;18.00;;
66089;SDS011;53113;45.602;11.904;2022-12-10T01:03:55;26.40;;;18.50;;
66089;SDS011;53113;45.602;11.904;2022-12-10T01:06:30;26.70;;;18.50;;
66089;SDS011;53113;45.602;11.904;2022-12-10T01:09:00;27.60;;;18.10;;
66089;SDS011;53113;45.602;11.904;2022-12-10T01:11:30;27.60;;;17.50;;
66089;SDS011;53113;45.602;11.904;2022-12-10T01:13:59;29.30;;;19.30;;
66089;SDS011;53113;45.602;11.904;2022-12-10T01:16:25;32.10;;;21.10;;
66089;SDS011;53113;45.602;11.904;2022-12-10T01:18:53;32.80;;;20.10;;
66089;SDS011;53113;45.602;11.904;2022-12-10T01:21:20;30.20;;;19.10;;
66089;SDS011;53113;45.602;11.904;2022-12-10T01:23:48;26.80;;;18.10;;
66089;SDS011;53113;45.602;11.904;2022-12-10T01:26:16;27.40;;;18.60;;
66089;SDS011;53113;45.602;11.904;2022-12-10T01:28:47;25.70;;;17.40;;
66089;SDS011;53113;45.602;11.904;2022-12-10T01:31:18;28.10;;;17.90;;
66089;SDS011;53113;45.602;11.904;2022-12-10T01:33:46;26.10;;;18.20;;
66089;SDS011;53113;45.602;11.904;2022-12-10T01:36:14;26.90;;;17.10;;
66089;SDS011;53113;45.602;11.904;2022-12-10T01:38:45;28.20;;;18.30;;
66089;SDS011;53113;45.602;11.904;2022-12-10T01:41:16;30.10;;;19.40;;
66089;SDS011;53113;45.602;11.904;2022-12-10T01:46:50;33.60;;;21.70;;
66089;SDS011;53113;45.602;11.904;2022-12-10T01:49:32;27.50;;;18.30;;
66089;SDS011;53113;45.602;11.904;2022-12-10T01:52:00;28.90;;;19.40;;
66089;SDS011;53113;45.602;11.904;2022-12-10T01:54:31;26.70;;;17.80;;
66089;SDS011;53113;45.602;11.904;2022-12-10T01:57:08;26.00;;;17.40;;
66089;SDS011;53113;45.602;11.904;2022-12-10T01:59:39;27.30;;;18.60;;
66089;SDS011;53113;45.602;11.904;2022-12-10T02:10:24;32.40;;;19.80;;
66089;SDS011;53113;45.602;11.904;2022-12-10T02:18:48;28.20;;;19.70;;
66089;SDS011;53113;45.602;11.904;2022-12-10T02:21:25;31.30;;;19.60;;
66089;SDS011;53113;45.602;11.904;2022-12-10T02:24:00;29.50;;;18.10;;
66089;SDS011;53113;45.602;11.904;2022-12-10T02:31:47;29.00;;;18.70;;
66089;SDS011;53113;45.602;11.904;2022-12-10T02:34:20;29.20;;;19.40;;
66089;SDS011;53113;45.602;11.904;2022-12-10T02:36:49;33.50;;;21.00;;
66089;SDS011;53113;45.602;11.904;2022-12-10T02:39:20;35.20;;;22.30;;
66089;SDS011;53113;45.602;11.904;2022-12-10T02:41:53;33.80;;;20.40;;
66089;SDS011;53113;45.602;11.904;2022-12-10T02:44:20;33.20;;;20.60;;
66089;SDS011;53113;45.602;11.904;2022-12-10T02:46:49;30.40;;;20.10;;
66089;SDS011;53113;45.602;11.904;2022-12-10T02:49:18;30.70;;;19.30;;
66089;SDS011;53113;45.602;11.904;2022-12-10T02:51:46;33.90;;;18.80;;
66089;SDS011;53113;45.602;11.904;2022-12-10T02:54:33;30.90;;;19.70;;
66089;SDS011;53113;45.602;11.904;2022-12-10T02:57:13;32.20;;;19.90;;
66089;SDS011;53113;45.602;11.904;2022-12-10T03:00:05;33.50;;;20.00;;
66089;SDS011;53113;45.602;11.904;2022-12-10T03:05:46;30.90;;;19.70;;
66089;SDS011;53113;45.602;11.904;2022-12-10T03:11:26;29.80;;;18.60;;
66089;SDS011;53113;45.602;11.904;2022-12-10T03:16:28;31.60;;;19.70;;
66089;SDS011;53113;45.602;11.904;2022-12-10T03:19:00;32.50;;;20.10;;
66089;SDS011;53113;45.602;11.904;2022-12-10T03:21:29;33.70;;;20.90;;
66089;SDS011;53113;45.602;11.904;2022-12-10T03:23:58;37.90;;;22.20;;
66089;SDS011;53113;45.602;11.904;2022-12-10T03:26:24;34.00;;;19.70;;
66089;SDS011;53113;45.602;11.904;2022-12-10T03:29:01;32.00;;;20.20;;
66089;SDS011;53113;45.602;11.904;2022-12-10T03:31:38;31.10;;;19.70;;
66089;SDS011;53113;45.602;11.904;2022-12-10T03:34:06;32.10;;;19.60;;
66089;SDS011;53113;45.602;11.904;2022-12-10T03:36:34;30.40;;;19.80;;
66089;SDS011;53113;45.602;11.904;2022-12-10T03:39:01;29.50;;;19.00;;
66089;SDS011;53113;45.602;11.904;2022-12-10T03:41:28;33.00;;;20.30;;
66089;SDS011;53113;45.602;11.904;2022-12-10T03:43:57;34.00;;;20.50;;
66089;SDS011;53113;45.602;11.904;2022-12-10T03:46:26;35.60;;;22.00;;
66089;SDS011;53113;45.602;11.904;2022-12-10T03:51:20;34.60;;;20.40;;
66089;SDS011;53113;45.602;11.904;2022-12-10T03:53:46;32.50;;;19.20;;
66089;SDS011;53113;45.602;11.904;2022-12-10T03:56:16;27.90;;;17.60;;
66089;SDS011;53113;45.602;11.904;2022-12-10T03:58:43;30.20;;;19.30;;
66089;SDS011;53113;45.602;11.904;2022-12-10T04:01:09;32.10;;;20.70;;
66089;SDS011;53113;45.602;11.904;2022-12-10T04:03:36;32.20;;;19.90;;
66089;SDS011;53113;45.602;11.904;2022-12-10T04:06:05;31.40;;;19.90;;
66089;SDS011;53113;45.602;11.904;2022-12-10T04:08:33;33.50;;;20.40;;
66089;SDS011;53113;45.602;11.904;2022-12-10T04:11:03;31.50;;;19.70;;
66089;SDS011;53113;45.602;11.904;2022-12-10T04:13:31;32.90;;;21.00;;
66089;SDS011;53113;45.602;11.904;2022-12-10T04:16:18;31.70;;;20.80;;
66089;SDS011;53113;45.602;11.904;2022-12-10T04:18:56;31.70;;;18.60;;
66089;SDS011;53113;45.602;11.904;2022-12-10T04:24:09;28.80;;;18.10;;
66089;SDS011;53113;45.602;11.904;2022-12-10T04:26:55;30.20;;;19.40;;
66089;SDS011;53113;45.602;11.904;2022-12-10T04:29:24;31.40;;;19.30;;
66089;SDS011;53113;45.602;11.904;2022-12-10T04:31:54;33.50;;;20.20;;
66089;SDS011;53113;45.602;11.904;2022-12-10T04:34:21;34.80;;;20.60;;
66089;SDS011;53113;45.602;11.904;2022-12-10T04:36:49;30.10;;;18.60;;
66089;SDS011;53113;45.602;11.904;2022-12-10T04:39:16;35.00;;;20.40;;
66089;SDS011;53113;45.602;11.904;2022-12-10T04:41:45;33.40;;;20.30;;
66089;SDS011;53113;45.602;11.904;2022-12-10T04:44:12;31.00;;;19.50;;
66089;SDS011;53113;45.602;11.904;2022-12-10T04:46:39;31.70;;;19.60;;
66089;SDS011;53113;45.602;11.904;2022-12-10T04:49:05;30.90;;;20.40;;
66089;SDS011;53113;45.602;11.904;2022-12-10T04:51:32;30.50;;;19.70;;
66089;SDS011;53113;45.602;11.904;2022-12-10T04:53:58;33.60;;;20.70;;
66089;SDS011;53113;45.602;11.904;2022-12-10T04:56:25;33.30;;;20.10;;
66089;SDS011;53113;45.602;11.904;2022-12-10T04:58:51;33.80;;;20.40;;
66089;SDS011;53113;45.602;11.904;2022-12-10T05:01:17;34.20;;;21.00;;
66089;SDS011;53113;45.602;11.904;2022-12-10T05:03:47;30.90;;;20.60;;
66089;SDS011;53113;45.602;11.904;2022-12-10T05:06:14;31.70;;;20.00;;
66089;SDS011;53113;45.602;11.904;2022-12-10T05:08:42;32.50;;;20.40;;
66089;SDS011;53113;45.602;11.904;2022-12-10T05:11:10;30.10;;;18.50;;
66089;SDS011;53113;45.602;11.904;2022-12-10T05:13:40;28.80;;;18.70;;
66089;SDS011;53113;45.602;11.904;2022-12-10T05:16:08;32.10;;;20.60;;
66089;SDS011;53113;45.602;11.904;2022-12-10T05:21:03;28.30;;;18.30;;
66089;SDS011;53113;45.602;11.904;2022-12-10T05:23:31;33.70;;;22.40;;
66089;SDS011;53113;45.602;11.904;2022-12-10T05:25:58;35.30;;;23.10;;
66089;SDS011;53113;45.602;11.904;2022-12-10T05:28:38;34.80;;;23.00;;
66089;SDS011;53113;45.602;11.904;2022-12-10T05:31:16;32.60;;;21.20;;
66089;SDS011;53113;45.602;11.904;2022-12-10T05:33:44;34.50;;;21.60;;
66089;SDS011;53113;45.602;11.904;2022-12-10T05:36:13;29.20;;;20.00;;
66089;SDS011;53113;45.602;11.904;2022-12-10T05:38:42;30.20;;;19.70;;
66089;SDS011;53113;45.602;11.904;2022-12-10T05:41:12;27.70;;;19.10;;
66089;SDS011;53113;45.602;11.904;2022-12-10T05:43:43;29.30;;;19.60;;
66089;SDS011;53113;45.602;11.904;2022-12-10T05:46:23;29.40;;;19.80;;
66089;SDS011;53113;45.602;11.904;2022-12-10T05:48:51;30.70;;;19.50;;
66089;SDS011;53113;45.602;11.904;2022-12-10T05:51:18;27.90;;;19.10;;
66089;SDS011;53113;45.602;11.904;2022-12-10T05:53:46;29.90;;;19.60;;
66089;SDS011;53113;45.602;11.904;2022-12-10T05:56:14;25.70;;;17.50;;
66089;SDS011;53113;45.602;11.904;2022-12-10T05:58:44;29.20;;;19.30;;
66089;SDS011;53113;45.602;11.904;2022-12-10T06:01:14;27.70;;;18.20;;
66089;SDS011;53113;45.602;11.904;2022-12-10T06:03:43;25.90;;;16.10;;
66089;SDS011;53113;45.602;11.904;2022-12-10T06:06:10;26.80;;;17.80;;
66089;SDS011;53113;45.602;11.904;2022-12-10T06:08:37;25.80;;;17.40;;
66089;SDS011;53113;45.602;11.904;2022-12-10T06:11:04;24.90;;;16.80;;
66089;SDS011;53113;45.602;11.904;2022-12-10T06:13:31;27.90;;;19.50;;
66089;SDS011;53113;45.602;11.904;2022-12-10T06:15:57;27.40;;;18.70;;
66089;SDS011;53113;45.602;11.904;2022-12-10T06:18:24;26.80;;;18.00;;
66089;SDS011;53113;45.602;11.904;2022-12-10T06:20:50;26.20;;;18.20;;
66089;SDS011;53113;45.602;11.904;2022-12-10T06:23:16;30.10;;;19.50;;
66089;SDS011;53113;45.602;11.904;2022-12-10T06:25:42;27.00;;;18.20;;
66089;SDS011;53113;45.602;11.904;2022-12-10T06:28:09;23.00;;;15.60;;
66089;SDS011;53113;45.602;11.904;2022-12-10T06:30:35;23.60;;;16.70;;
66089;SDS011;53113;45.602;11.904;2022-12-10T06:33:01;25.70;;;17.60;;
66089;SDS011;53113;45.602;11.904;2022-12-10T06:35:27;25.40;;;17.30;;
66089;SDS011;53113;45.602;11.904;2022-12-10T06:37:53;24.40;;;16.50;;
66089;SDS011;53113;45.602;11.904;2022-12-10T06:40:20;25.30;;;18.50;;
66089;SDS011;53113;45.602;11.904;2022-12-10T06:42:46;23.60;;;17.40;;
66089;SDS011;53113;45.602;11.904;2022-12-10T06:45:12;24.50;;;16.80;;
66089;SDS011;53113;45.602;11.904;2022-12-10T06:47:39;25.00;;;17.80;;
66089;SDS011;53113;45.602;11.904;2022-12-10T06:50:05;22.70;;;16.30;;
66089;SDS011;53113;45.602;11.904;2022-12-10T06:52:31;20.90;;;15.80;;
66089;SDS011;53113;45.602;11.904;2022-12-10T06:54:57;23.60;;;16.80;;
66089;SDS011;53113;45.602;11.904;2022-12-10T06:57:23;24.30;;;17.10;;
66089;SDS011;53113;45.602;11.904;2022-12-10T06:59:49;25.10;;;17.50;;
66089;SDS011;53113;45.602;11.904;2022-12-10T07:02:16;25.90;;;17.90;;
66089;SDS011;53113;45.602;11.904;2022-12-10T07:04:42;23.80;;;17.60;;
66089;SDS011;53113;45.602;11.904;2022-12-10T07:07:08;25.30;;;18.20;;
66089;SDS011;53113;45.602;11.904;2022-12-10T07:09:35;22.80;;;17.30;;
66089;SDS011;53113;45.602;11.904;2022-12-10T07:12:01;24.30;;;17.00;;
66089;SDS011;53113;45.602;11.904;2022-12-10T07:14:28;22.70;;;16.80;;
66089;SDS011;53113;45.602;11.904;2022-12-10T07:16:54;21.10;;;15.50;;
66089;SDS011;53113;45.602;11.904;2022-12-10T07:19:20;22.00;;;16.60;;
66089;SDS011;53113;45.602;11.904;2022-12-10T07:21:46;21.40;;;16.10;;
66089;SDS011;53113;45.602;11.904;2022-12-10T07:24:17;22.50;;;16.10;;
66089;SDS011;53113;45.602;11.904;2022-12-10T07:26:45;24.80;;;17.50;;
66089;SDS011;53113;45.602;11.904;2022-12-10T07:29:12;25.90;;;18.30;;
66089;SDS011;53113;45.602;11.904;2022-12-10T07:31:43;26.00;;;18.30;;
66089;SDS011;53113;45.602;11.904;2022-12-10T07:34:10;24.70;;;17.40;;
66089;SDS011;53113;45.602;11.904;2022-12-10T07:36:37;23.90;;;17.60;;
66089;SDS011;53113;45.602;11.904;2022-12-10T07:39:07;22.20;;;16.40;;
66089;SDS011;53113;45.602;11.904;2022-12-10T07:41:35;22.60;;;16.80;;
66089;SDS011;53113;45.602;11.904;2022-12-10T07:44:03;22.30;;;16.30;;
66089;SDS011;53113;45.602;11.904;2022-12-10T07:46:31;26.00;;;19.50;;
66089;SDS011;53113;45.602;11.904;2022-12-10T07:49:01;26.00;;;18.90;;
66089;SDS011;53113;45.602;11.904;2022-12-10T07:51:27;26.60;;;20.10;;
66089;SDS011;53113;45.602;11.904;2022-12-10T07:53:54;25.80;;;19.80;;
66089;SDS011;53113;45.602;11.904;2022-12-10T07:56:20;25.90;;;19.20;;
66089;SDS011;53113;45.602;11.904;2022-12-10T07:58:47;26.20;;;18.70;;
66089;SDS011;53113;45.602;11.904;2022-12-10T08:02:32;29.20;;;20.40;;
66089;SDS011;53113;45.602;11.904;2022-12-10T08:04:58;33.50;;;22.70;;
66089;SDS011;53113;45.602;11.904;2022-12-10T08:07:23;36.80;;;24.40;;
66089;SDS011;53113;45.602;11.904;2022-12-10T08:09:49;46.40;;;26.00;;
66089;SDS011;53113;45.602;11.904;2022-12-10T08:12:14;56.40;;;30.40;;
66089;SDS011;53113;45.602;11.904;2022-12-10T08:14:40;39.70;;;26.10;;
66089;SDS011;53113;45.602;11.904;2022-12-10T08:17:06;32.30;;;21.60;;
66089;SDS011;53113;45.602;11.904;2022-12-10T08:19:32;25.70;;;18.80;;
66089;SDS011;53113;45.602;11.904;2022-12-10T08:21:58;24.10;;;17.90;;
66089;SDS011;53113;45.602;11.904;2022-12-10T08:24:23;23.90;;;18.60;;
66089;SDS011;53113;45.602;11.904;2022-12-10T08:26:49;23.50;;;17.30;;
66089;SDS011;53113;45.602;11.904;2022-12-10T08:29:15;20.30;;;15.40;;
66089;SDS011;53113;45.602;11.904;2022-12-10T08:31:41;22.80;;;18.50;;
66089;SDS011;53113;45.602;11.904;2022-12-10T08:34:13;24.00;;;18.30;;
66089;SDS011;53113;45.602;11.904;2022-12-10T08:36:41;27.70;;;21.70;;
66089;SDS011;53113;45.602;11.904;2022-12-10T08:39:07;28.60;;;21.70;;
66089;SDS011;53113;45.602;11.904;2022-12-10T08:41:33;20.80;;;17.00;;
66089;SDS011;53113;45.602;11.904;2022-12-10T08:43:59;24.00;;;17.30;;
66089;SDS011;53113;45.602;11.904;2022-12-10T08:46:25;25.10;;;18.90;;
66089;SDS011;53113;45.602;11.904;2022-12-10T08:48:51;25.40;;;18.90;;
66089;SDS011;53113;45.602;11.904;2022-12-10T08:51:18;29.70;;;21.30;;
66089;SDS011;53113;45.602;11.904;2022-12-10T08:53:44;23.30;;;17.90;;
66089;SDS011;53113;45.602;11.904;2022-12-10T08:56:11;23.50;;;18.00;;
66089;SDS011;53113;45.602;11.904;2022-12-10T08:58:37;25.00;;;18.80;;
66089;SDS011;53113;45.602;11.904;2022-12-10T09:01:08;23.60;;;17.40;;
66089;SDS011;53113;45.602;11.904;2022-12-10T09:03:35;20.30;;;15.80;;
66089;SDS011;53113;45.602;11.904;2022-12-10T09:06:03;22.30;;;15.70;;
66089;SDS011;53113;45.602;11.904;2022-12-10T09:08:30;19.40;;;15.00;;
66089;SDS011;53113;45.602;11.904;2022-12-10T09:10:56;19.20;;;15.30;;
66089;SDS011;53113;45.602;11.904;2022-12-10T09:13:22;18.20;;;13.90;;
66089;SDS011;53113;45.602;11.904;2022-12-10T09:15:49;20.00;;;14.70;;
66089;SDS011;53113;45.602;11.904;2022-12-10T09:18:16;19.30;;;14.30;;
66089;SDS011;53113;45.602;11.904;2022-12-10T09:20:42;19.00;;;15.30;;
66089;SDS011;53113;45.602;11.904;2022-12-10T09:23:08;20.80;;;16.40;;
66089;SDS011;53113;45.602;11.904;2022-12-10T09:25:33;21.70;;;17.00;;
66089;SDS011;53113;45.602;11.904;2022-12-10T09:27:59;20.70;;;16.30;;
66089;SDS011;53113;45.602;11.904;2022-12-10T09:30:25;23.80;;;16.40;;
66089;SDS011;53113;45.602;11.904;2022-12-10T09:32:51;21.60;;;15.40;;
66089;SDS011;53113;45.602;11.904;2022-12-10T09:35:17;27.90;;;22.10;;
66089;SDS011;53113;45.602;11.904;2022-12-10T09:37:43;19.60;;;14.70;;
66089;SDS011;53113;45.602;11.904;2022-12-10T09:40:16;21.70;;;16.10;;
66089;SDS011;53113;45.602;11.904;2022-12-10T09:46:06;18.40;;;12.90;;
66089;SDS011;53113;45.602;11.904;2022-12-10T09:48:36;19.30;;;14.30;;
66089;SDS011;53113;45.602;11.904;2022-12-10T09:51:23;21.90;;;14.40;;
66089;SDS011;53113;45.602;11.904;2022-12-10T09:53:51;19.10;;;13.40;;
66089;SDS011;53113;45.602;11.904;2022-12-10T09:56:28;19.30;;;15.70;;
66089;SDS011;53113;45.602;11.904;2022-12-10T09:58:59;17.50;;;13.10;;
66089;SDS011;53113;45.602;11.904;2022-12-10T10:01:36;19.20;;;12.70;;
66089;SDS011;53113;45.602;11.904;2022-12-10T10:04:03;18.60;;;13.40;;
66089;SDS011;53113;45.602;11.904;2022-12-10T10:06:29;19.20;;;13.60;;
66089;SDS011;53113;45.602;11.904;2022-12-10T10:08:57;19.50;;;14.20;;
66089;SDS011;53113;45.602;11.904;2022-12-10T10:11:31;16.20;;;11.80;;
66089;SDS011;53113;45.602;11.904;2022-12-10T10:14:16;20.10;;;15.40;;
66089;SDS011;53113;45.602;11.904;2022-12-10T10:16:58;17.90;;;13.50;;
66089;SDS011;53113;45.602;11.904;2022-12-10T10:19:28;15.10;;;11.70;;
66089;SDS011;53113;45.602;11.904;2022-12-10T10:21:59;14.90;;;10.90;;
66089;SDS011;53113;45.602;11.904;2022-12-10T10:24:34;13.50;;;10.80;;
66089;SDS011;53113;45.602;11.904;2022-12-10T10:27:35;13.40;;;10.00;;
66089;SDS011;53113;45.602;11.904;2022-12-10T10:29:57;30.70;;;22.90;;
66089;SDS011;53113;45.602;11.904;2022-12-10T10:34:54;17.80;;;15.20;;
66089;SDS011;53113;45.602;11.904;2022-12-10T10:37:29;16.60;;;13.00;;
66089;SDS011;53113;45.602;11.904;2022-12-10T10:40:05;15.60;;;12.60;;
66089;SDS011;53113;45.602;11.904;2022-12-10T10:42:35;13.00;;;10.70;;
66089;SDS011;53113;45.602;11.904;2022-12-10T10:45:30;13.10;;;10.50;;
66089;SDS011;53113;45.602;11.904;2022-12-10T10:48:15;13.10;;;10.70;;
66089;SDS011;53113;45.602;11.904;2022-12-10T10:50:47;16.30;;;11.40;;
66089;SDS011;53113;45.602;11.904;2022-12-10T10:53:54;14.40;;;11.20;;
66089;SDS011;53113;45.602;11.904;2022-12-10T10:56:20;13.80;;;10.10;;
66089;SDS011;53113;45.602;11.904;2022-12-10T10:59:02;13.70;;;10.40;;
66089;SDS011;53113;45.602;11.904;2022-12-10T11:04:12;15.10;;;10.90;;
66089;SDS011;53113;45.602;11.904;2022-12-10T11:06:40;13.60;;;10.50;;
66089;SDS011;53113;45.602;11.904;2022-12-10T11:09:07;13.70;;;10.10;;
66089;SDS011;53113;45.602;11.904;2022-12-10T11:11:39;13.60;;;9.90;;
66089;SDS011;53113;45.602;11.904;2022-12-10T11:14:15;13.30;;;10.40;;
66089;SDS011;53113;45.602;11.904;2022-12-10T11:17:19;13.70;;;10.00;;
66089;SDS011;53113;45.602;11.904;2022-12-10T11:22:51;14.90;;;10.80;;
66089;SDS011;53113;45.602;11.904;2022-12-10T11:25:22;12.90;;;9.40;;
66089;SDS011;53113;45.602;11.904;2022-12-10T11:28:04;13.90;;;10.20;;
66089;SDS011;53113;45.602;11.904;2022-12-10T11:30:42;15.00;;;10.50;;
66089;SDS011;53113;45.602;11.904;2022-12-10T11:33:21;12.60;;;9.00;;
66089;SDS011;53113;45.602;11.904;2022-12-10T11:36:14;12.90;;;9.70;;
66089;SDS011;53113;45.602;11.904;2022-12-10T11:41:48;13.20;;;9.40;;
66089;SDS011;53113;45.602;11.904;2022-12-10T11:44:37;12.70;;;9.80;;
66089;SDS011;53113;45.602;11.904;2022-12-10T11:49:54;12.40;;;9.20;;
66089;SDS011;53113;45.602;11.904;2022-12-10T12:10:01;14.00;;;9.20;;
66089;SDS011;53113;45.602;11.904;2022-12-10T12:12:55;13.40;;;10.10;;
66089;SDS011;53113;45.602;11.904;2022-12-10T12:15:49;12.50;;;9.70;;
66089;SDS011;53113;45.602;11.904;2022-12-10T12:18:28;12.50;;;9.80;;
66089;SDS011;53113;45.602;11.904;2022-12-10T12:21:21;14.00;;;10.90;;
66089;SDS011;53113;45.602;11.904;2022-12-10T12:23:58;13.00;;;10.10;;
66089;SDS011;53113;45.602;11.904;2022-12-10T12:26:37;12.50;;;9.50;;
66089;SDS011;53113;45.602;11.904;2022-12-10T12:31:46;12.90;;;9.30;;
66089;SDS011;53113;45.602;11.904;2022-12-10T12:36:51;12.30;;;8.90;;
66089;SDS011;53113;45.602;11.904;2022-12-10T12:41:53;13.20;;;9.40;;
66089;SDS011;53113;45.602;11.904;2022-12-10T12:44:29;14.10;;;9.90;;
66089;SDS011;53113;45.602;11.904;2022-12-10T12:49:42;13.00;;;10.00;;
66089;SDS011;53113;45.602;11.904;2022-12-10T12:55:14;14.20;;;11.00;;
66089;SDS011;53113;45.602;11.904;2022-12-10T13:00:21;15.70;;;11.70;;
66089;SDS011;53113;45.602;11.904;2022-12-10T13:05:28;13.90;;;11.10;;
66089;SDS011;53113;45.602;11.904;2022-12-10T13:10:57;14.20;;;10.70;;
66089;SDS011;53113;45.602;11.904;2022-12-10T13:13:39;13.60;;;10.20;;
66089;SDS011;53113;45.602;11.904;2022-12-10T13:24:21;13.30;;;9.90;;
66089;SDS011;53113;45.602;11.904;2022-12-10T13:29:57;13.90;;;10.20;;
66089;SDS011;53113;45.602;11.904;2022-12-10T13:37:53;14.00;;;10.50;;
66089;SDS011;53113;45.602;11.904;2022-12-10T13:43:23;15.80;;;11.50;;
66089;SDS011;53113;45.602;11.904;2022-12-10T13:46:34;13.30;;;10.70;;
66089;SDS011;53113;45.602;11.904;2022-12-10T13:49:17;15.20;;;11.20;;
66089;SDS011;53113;45.602;11.904;2022-12-10T13:57:50;15.80;;;11.70;;
66089;SDS011;53113;45.602;11.904;2022-12-10T14:00:46;14.80;;;11.40;;
66089;SDS011;53113;45.602;11.904;2022-12-10T14:03:24;16.90;;;12.80;;
66089;SDS011;53113;45.602;11.904;2022-12-10T14:06:19;17.50;;;13.50;;
66089;SDS011;53113;45.602;11.904;2022-12-10T14:11:31;17.50;;;12.90;;
66089;SDS011;53113;45.602;11.904;2022-12-10T14:14:01;17.60;;;13.00;;
66089;SDS011;53113;45.602;11.904;2022-12-10T14:16:30;16.80;;;12.50;;
66089;SDS011;53113;45.602;11.904;2022-12-10T14:18:58;16.10;;;13.20;;
66089;SDS011;53113;45.602;11.904;2022-12-10T14:21:31;18.00;;;13.60;;
66089;SDS011;53113;45.602;11.904;2022-12-10T14:24:00;17.00;;;14.10;;
66089;SDS011;53113;45.602;11.904;2022-12-10T14:26:26;16.10;;;13.00;;
66089;SDS011;53113;45.602;11.904;2022-12-10T14:28:56;17.30;;;13.60;;
66089;SDS011;53113;45.602;11.904;2022-12-10T14:33:59;17.20;;;12.80;;
66089;SDS011;53113;45.602;11.904;2022-12-10T14:36:32;18.60;;;13.40;;
66089;SDS011;53113;45.602;11.904;2022-12-10T14:39:03;16.30;;;12.10;;
66089;SDS011;53113;45.602;11.904;2022-12-10T14:41:35;19.40;;;13.70;;
66089;SDS011;53113;45.602;11.904;2022-12-10T14:44:02;16.90;;;13.30;;
66089;SDS011;53113;45.602;11.904;2022-12-10T14:46:31;19.50;;;13.90;;
66089;SDS011;53113;45.602;11.904;2022-12-10T14:48:57;23.70;;;16.40;;
66089;SDS011;53113;45.602;11.904;2022-12-10T14:51:25;19.10;;;14.40;;
66089;SDS011;53113;45.602;11.904;2022-12-10T14:53:56;18.90;;;13.90;;
66089;SDS011;53113;45.602;11.904;2022-12-10T14:56:37;16.80;;;13.00;;
66089;SDS011;53113;45.602;11.904;2022-12-10T14:59:11;19.40;;;14.80;;
66089;SDS011;53113;45.602;11.904;2022-12-10T15:01:43;16.30;;;12.70;;
66089;SDS011;53113;45.602;11.904;2022-12-10T15:04:16;18.60;;;13.90;;
66089;SDS011;53113;45.602;11.904;2022-12-10T15:06:44;18.20;;;14.30;;
66089;SDS011;53113;45.602;11.904;2022-12-10T15:09:15;18.90;;;14.40;;
66089;SDS011;53113;45.602;11.904;2022-12-10T15:11:45;23.60;;;16.80;;
66089;SDS011;53113;45.602;11.904;2022-12-10T15:14:18;27.00;;;19.00;;
66089;SDS011;53113;45.602;11.904;2022-12-10T15:16:46;27.00;;;18.90;;
66089;SDS011;53113;45.602;11.904;2022-12-10T15:19:17;31.00;;;20.10;;
66089;SDS011;53113;45.602;11.904;2022-12-10T15:21:47;35.00;;;23.00;;
66089;SDS011;53113;45.602;11.904;2022-12-10T15:26:46;33.60;;;23.20;;
66089;SDS011;53113;45.602;11.904;2022-12-10T15:29:35;33.70;;;21.50;;
66089;SDS011;53113;45.602;11.904;2022-12-10T15:32:03;37.10;;;20.80;;
66089;SDS011;53113;45.602;11.904;2022-12-10T15:34:42;32.00;;;20.70;;
66089;SDS011;53113;45.602;11.904;2022-12-10T15:37:26;29.80;;;21.50;;
66089;SDS011;53113;45.602;11.904;2022-12-10T15:40:00;31.40;;;21.80;;
66089;SDS011;53113;45.602;11.904;2022-12-10T15:42:40;33.70;;;21.90;;
66089;SDS011;53113;45.602;11.904;2022-12-10T15:45:24;34.70;;;22.50;;
66089;SDS011;53113;45.602;11.904;2022-12-10T15:47:51;34.90;;;23.50;;
66089;SDS011;53113;45.602;11.904;2022-12-10T15:50:19;34.60;;;23.20;;
66089;SDS011;53113;45.602;11.904;2022-12-10T15:52:45;31.30;;;21.80;;
66089;SDS011;53113;45.602;11.904;2022-12-10T15:55:12;34.50;;;22.60;;
66089;SDS011;53113;45.602;11.904;2022-12-10T15:57:39;33.60;;;22.60;;
66089;SDS011;53113;45.602;11.904;2022-12-10T16:00:17;34.90;;;22.80;;
66089;SDS011;53113;45.602;11.904;2022-12-10T16:02:49;32.70;;;22.00;;
66089;SDS011;53113;45.602;11.904;2022-12-10T16:05:17;31.60;;;21.20;;
66089;SDS011;53113;45.602;11.904;2022-12-10T16:07:54;35.30;;;22.70;;
66089;SDS011;53113;45.602;11.904;2022-12-10T16:10:22;33.20;;;22.20;;
66089;SDS011;53113;45.602;11.904;2022-12-10T16:12:56;31.80;;;22.30;;
66089;SDS011;53113;45.602;11.904;2022-12-10T16:15:25;33.90;;;21.50;;
66089;SDS011;53113;45.602;11.904;2022-12-10T16:17:53;32.20;;;21.60;;
66089;SDS011;53113;45.602;11.904;2022-12-10T16:20:23;31.40;;;20.80;;
66089;SDS011;53113;45.602;11.904;2022-12-10T16:22:51;34.60;;;22.20;;
66089;SDS011;53113;45.602;11.904;2022-12-10T16:25:22;33.90;;;21.90;;
66089;SDS011;53113;45.602;11.904;2022-12-10T16:27:49;34.00;;;22.20;;
66089;SDS011;53113;45.602;11.904;2022-12-10T16:30:19;30.70;;;20.90;;
66089;SDS011;53113;45.602;11.904;2022-12-10T16:32:47;33.70;;;22.70;;
66089;SDS011;53113;45.602;11.904;2022-12-10T16:35:13;32.20;;;22.30;;
66089;SDS011;53113;45.602;11.904;2022-12-10T16:37:41;34.00;;;22.30;;
66089;SDS011;53113;45.602;11.904;2022-12-10T16:40:08;32.80;;;22.50;;
66089;SDS011;53113;45.602;11.904;2022-12-10T16:42:35;29.80;;;21.00;;